createdAt,value
2023-05-22T00:04:26.478Z,16.62
2023-05-22T00:06:52.747Z,16.91
2023-05-22T00:09:19.001Z,16.95
2023-05-22T00:11:45.253Z,16.95
2023-05-22T00:14:11.510Z,17.16
2023-05-22T00:16:37.791Z,16.99
2023-05-22T00:19:04.111Z,17.12
2023-05-22T00:21:30.497Z,17.15
2023-05-22T00:23:56.767Z,17.24
2023-05-22T00:26:23.028Z,17.16
2023-05-22T00:28:49.295Z,17.27
2023-05-22T00:31:15.572Z,17.29
2023-05-22T00:33:41.858Z,17.20
2023-05-22T00:36:08.208Z,17.21
2023-05-22T00:38:34.778Z,17.05
2023-05-22T00:41:01.336Z,17.08
2023-05-22T00:43:27.837Z,17.08
2023-05-22T00:45:54.087Z,17.04
2023-05-22T00:48:20.939Z,16.97
2023-05-22T00:50:47.186Z,16.90
2023-05-22T00:53:13.611Z,16.40
2023-05-22T00:55:39.867Z,15.88
2023-05-22T00:58:06.165Z,16.16
2023-05-22T01:00:32.411Z,16.16
2023-05-22T01:02:58.759Z,16.34
2023-05-22T01:05:25.038Z,16.53
2023-05-22T01:07:51.292Z,16.45
2023-05-22T01:10:17.539Z,16.55
2023-05-22T01:12:48.128Z,16.40
2023-05-22T01:15:21.430Z,16.47
2023-05-22T01:17:51.647Z,16.25
2023-05-22T01:20:23.472Z,16.35
2023-05-22T01:22:49.697Z,15.99
2023-05-22T01:25:16.079Z,15.76
2023-05-22T01:27:54.032Z,15.86
2023-05-22T01:30:40.594Z,15.92
2023-05-22T01:33:07.152Z,15.96
2023-05-22T01:35:33.442Z,15.89
2023-05-22T01:37:59.688Z,15.89
2023-05-22T01:40:25.942Z,15.61
2023-05-22T01:42:52.183Z,15.71
2023-05-22T01:45:18.433Z,15.75
2023-05-22T01:47:44.738Z,15.81
2023-05-22T01:50:11.013Z,15.67
2023-05-22T01:52:40.074Z,15.64
2023-05-22T01:55:09.585Z,15.19
2023-05-22T01:57:41.987Z,15.11
2023-05-22T02:00:08.805Z,15.35
2023-05-22T02:02:38.602Z,15.54
2023-05-22T02:05:05.066Z,15.58
2023-05-22T02:07:32.196Z,15.22
2023-05-22T02:09:58.450Z,15.32
2023-05-22T02:12:24.697Z,15.27
2023-05-22T02:14:50.960Z,15.30
2023-05-22T02:17:17.213Z,15.16
2023-05-22T02:19:44.156Z,15.33
2023-05-22T02:22:10.399Z,15.41
2023-05-22T02:24:36.684Z,15.20
2023-05-22T02:27:02.922Z,15.41
2023-05-22T02:29:29.180Z,15.37
2023-05-22T02:31:55.440Z,15.46
2023-05-22T02:34:21.704Z,15.51
2023-05-22T02:36:47.967Z,15.49
2023-05-22T02:39:14.235Z,15.48
2023-05-22T02:41:40.486Z,15.48
2023-05-22T02:44:06.725Z,15.41
2023-05-22T02:46:33.000Z,15.33
2023-05-22T02:48:59.269Z,15.39
2023-05-22T02:51:25.531Z,15.22
2023-05-22T02:53:52.228Z,15.20
2023-05-22T02:56:18.488Z,15.24
2023-05-22T02:58:44.732Z,15.27
2023-05-22T03:01:11.054Z,15.27
2023-05-22T03:03:37.472Z,15.10
2023-05-22T03:06:03.839Z,15.16
2023-05-22T03:08:32.853Z,15.25
2023-05-22T03:10:59.178Z,15.01
2023-05-22T03:13:25.445Z,14.93
2023-05-22T03:15:51.798Z,14.75
2023-05-22T03:18:18.089Z,14.35
2023-05-22T03:20:44.360Z,14.65
2023-05-22T03:23:11.099Z,14.66
2023-05-22T03:25:37.359Z,14.50
2023-05-22T03:28:03.643Z,14.65
2023-05-22T03:30:29.911Z,14.83
2023-05-22T03:32:56.166Z,14.76
2023-05-22T03:35:22.679Z,14.68
2023-05-22T03:37:48.918Z,14.48
2023-05-22T03:40:15.164Z,14.53
2023-05-22T03:42:41.428Z,14.77
2023-05-22T03:45:07.829Z,14.87
2023-05-22T03:47:34.119Z,14.60
2023-05-22T03:50:00.385Z,14.33
2023-05-22T03:52:26.638Z,14.18
2023-05-22T03:54:52.903Z,14.37
2023-05-22T03:57:19.156Z,13.95
2023-05-22T03:59:45.796Z,13.85
2023-05-22T04:02:12.333Z,13.86
2023-05-22T04:04:38.836Z,14.03
2023-05-22T04:07:05.266Z,13.97
2023-05-22T04:09:31.552Z,13.84
2023-05-22T04:11:57.819Z,14.06
2023-05-22T04:14:24.082Z,14.02
2023-05-22T04:16:50.576Z,14.02
2023-05-22T04:19:17.417Z,14.07
2023-05-22T04:21:43.696Z,14.08
2023-05-22T04:24:09.941Z,14.31
2023-05-22T04:26:36.434Z,14.45
2023-05-22T04:29:02.957Z,14.51
2023-05-22T04:31:29.307Z,14.57
2023-05-22T04:33:55.657Z,14.72
2023-05-22T04:36:22.108Z,14.75
2023-05-22T04:38:48.672Z,14.74
2023-05-22T04:41:14.924Z,14.74
2023-05-22T04:43:41.193Z,14.82
2023-05-22T04:46:07.512Z,14.96
2023-05-22T04:48:33.803Z,15.19
2023-05-22T04:51:00.076Z,15.46
2023-05-22T04:53:26.349Z,15.49
2023-05-22T04:55:52.610Z,15.55
2023-05-22T04:58:18.870Z,15.59
2023-05-22T05:00:45.163Z,15.70
2023-05-22T05:03:11.526Z,15.82
2023-05-22T05:05:37.914Z,15.86
2023-05-22T05:08:04.197Z,15.85
2023-05-22T05:10:30.462Z,15.86
2023-05-22T05:12:56.713Z,15.93
2023-05-22T05:15:22.965Z,16.07
2023-05-22T05:17:49.249Z,16.24
2023-05-22T05:20:15.526Z,16.47
2023-05-22T05:22:41.766Z,16.56
2023-05-22T05:25:10.836Z,16.82
2023-05-22T05:27:37.867Z,16.88
2023-05-22T05:30:04.272Z,17.21
2023-05-22T05:32:30.533Z,17.36
2023-05-22T05:34:56.846Z,17.47
2023-05-22T05:37:23.099Z,17.61
2023-05-22T05:39:49.373Z,18.01
2023-05-22T05:42:15.636Z,17.94
2023-05-22T05:44:41.905Z,18.30
2023-05-22T05:47:08.161Z,18.43
2023-05-22T05:49:35.875Z,18.83
2023-05-22T05:52:02.307Z,18.95
2023-05-22T05:54:28.585Z,19.36
2023-05-22T05:56:54.829Z,19.52
2023-05-22T05:59:21.097Z,19.28
2023-05-22T06:01:47.355Z,19.16
2023-05-22T06:04:13.737Z,18.92
2023-05-22T06:06:40.114Z,19.22
2023-05-22T06:09:06.601Z,19.63
2023-05-22T06:11:33.188Z,20.32
2023-05-22T06:13:59.459Z,20.40
2023-05-22T06:16:25.860Z,20.44
2023-05-22T06:18:52.176Z,20.40
2023-05-22T06:21:18.820Z,20.61
2023-05-22T06:23:45.064Z,21.08
2023-05-22T06:26:11.324Z,21.32
2023-05-22T06:28:37.569Z,20.78
2023-05-22T06:31:03.855Z,21.16
2023-05-22T06:33:30.184Z,21.77
2023-05-22T06:35:56.485Z,21.93
2023-05-22T06:38:22.736Z,21.69
2023-05-22T06:40:48.995Z,21.64
2023-05-22T06:43:15.243Z,21.87
2023-05-22T06:45:41.572Z,21.37
2023-05-22T06:48:07.878Z,22.18
2023-05-22T06:50:34.222Z,22.14
2023-05-22T06:53:00.486Z,22.23
2023-05-22T06:55:26.746Z,22.16
2023-05-22T06:57:52.990Z,22.55
2023-05-22T07:00:21.658Z,22.44
2023-05-22T07:02:48.318Z,22.39
2023-05-22T07:05:14.582Z,22.73
2023-05-22T07:07:40.827Z,22.41
2023-05-22T07:10:07.326Z,22.59
2023-05-22T07:12:33.572Z,23.02
2023-05-22T07:14:59.835Z,24.04
2023-05-22T07:17:26.132Z,23.36
2023-05-22T07:19:52.406Z,23.43
2023-05-22T07:22:18.646Z,23.54
2023-05-22T07:24:44.920Z,23.59
2023-05-22T07:27:11.170Z,23.92
2023-05-22T07:29:37.443Z,23.29
2023-05-22T07:32:03.840Z,23.46
2023-05-22T07:34:30.152Z,23.33
2023-05-22T07:36:56.422Z,23.14
2023-05-22T07:39:22.697Z,23.88
2023-05-22T07:41:49.012Z,23.62
2023-05-22T07:44:15.281Z,24.06
2023-05-22T07:46:41.704Z,24.30
2023-05-22T07:49:07.969Z,23.22
2023-05-22T07:51:34.224Z,23.50
2023-05-22T07:54:00.663Z,23.84
2023-05-22T07:56:27.063Z,24.12
2023-05-22T07:58:53.440Z,24.17
2023-05-22T08:01:19.696Z,24.12
2023-05-22T08:03:46.114Z,24.10
2023-05-22T08:06:12.610Z,24.64
2023-05-22T08:08:38.963Z,24.55
2023-05-22T08:11:05.384Z,24.96
2023-05-22T08:13:31.734Z,25.07
2023-05-22T08:16:00.394Z,24.17
2023-05-22T08:18:27.722Z,23.02
2023-05-22T08:20:54.956Z,22.88
2023-05-22T08:23:21.366Z,22.21
2023-05-22T08:25:47.631Z,22.48
2023-05-22T08:28:13.902Z,23.08
2023-05-22T08:30:40.391Z,23.79
2023-05-22T08:33:06.769Z,24.22
2023-05-22T08:35:33.113Z,24.54
2023-05-22T08:37:59.364Z,24.85
2023-05-22T08:40:27.881Z,24.80
2023-05-22T08:42:54.162Z,25.24
2023-05-22T08:45:20.419Z,25.40
2023-05-22T08:47:47.275Z,25.11
2023-05-22T08:50:13.545Z,25.92
2023-05-22T08:52:46.831Z,25.63
2023-05-22T08:55:13.170Z,26.09
2023-05-22T08:57:39.438Z,25.77
2023-05-22T09:00:06.001Z,25.64
2023-05-22T09:02:32.312Z,25.29
2023-05-22T09:04:58.578Z,25.80
2023-05-22T09:07:24.834Z,26.41
2023-05-22T09:09:51.086Z,25.91
2023-05-22T09:12:17.348Z,25.50
2023-05-22T09:14:43.890Z,25.66
2023-05-22T09:17:10.600Z,26.06
2023-05-22T09:19:36.951Z,26.53
2023-05-22T09:22:03.627Z,26.69
2023-05-22T09:24:30.092Z,26.95
2023-05-22T09:26:56.400Z,27.30
2023-05-22T09:29:22.647Z,26.31
2023-05-22T09:31:49.014Z,26.66
2023-05-22T09:34:15.383Z,26.71
2023-05-22T09:36:41.703Z,26.36
2023-05-22T09:39:07.967Z,26.51
2023-05-22T09:41:35.092Z,26.40
2023-05-22T09:44:02.168Z,26.39
2023-05-22T09:46:28.909Z,26.65
2023-05-22T09:48:55.168Z,26.60
2023-05-22T09:51:21.492Z,26.58
2023-05-22T09:53:47.758Z,27.44
2023-05-22T09:56:15.891Z,27.67
2023-05-22T09:58:43.705Z,27.27
2023-05-22T10:01:09.965Z,26.61
2023-05-22T10:03:36.255Z,26.50
2023-05-22T10:06:02.513Z,26.66
2023-05-22T10:08:28.776Z,27.06
2023-05-22T10:10:55.112Z,27.10
2023-05-22T10:13:21.410Z,26.63
2023-05-22T10:15:48.088Z,26.91
2023-05-22T10:18:14.836Z,26.99
2023-05-22T10:20:41.237Z,26.89
2023-05-22T10:23:07.772Z,26.58
2023-05-22T10:25:34.690Z,26.56
2023-05-22T10:28:01.522Z,26.92
2023-05-22T10:30:27.741Z,26.48
2023-05-22T10:33:13.480Z,26.20
2023-05-22T10:35:45.042Z,27.06
2023-05-22T10:38:30.020Z,27.40
2023-05-22T10:40:56.279Z,27.81
2023-05-22T10:43:22.594Z,27.36
2023-05-22T10:45:48.924Z,27.49
2023-05-22T10:48:15.238Z,27.73
2023-05-22T10:50:49.938Z,27.18
2023-05-22T10:53:19.822Z,27.28
2023-05-22T10:55:49.672Z,27.26
2023-05-22T10:58:16.386Z,27.10
2023-05-22T11:00:42.903Z,27.51
2023-05-22T11:03:17.825Z,27.31
2023-05-22T11:05:44.715Z,27.17
2023-05-22T11:08:10.925Z,26.97
2023-05-22T11:10:52.845Z,27.20
2023-05-22T11:13:19.083Z,27.58
2023-05-22T11:15:45.531Z,27.23
2023-05-22T11:18:11.875Z,27.42
2023-05-22T11:20:38.906Z,27.87
2023-05-22T11:23:05.652Z,27.55
2023-05-22T11:25:32.539Z,27.84
2023-05-22T11:27:58.781Z,27.61
2023-05-22T11:30:25.564Z,27.60
2023-05-22T11:32:51.899Z,27.62
2023-05-22T11:35:18.478Z,27.98
2023-05-22T11:37:44.889Z,27.39
2023-05-22T11:40:12.884Z,27.49
2023-05-22T11:42:39.154Z,27.25
2023-05-22T11:45:05.665Z,27.38
2023-05-22T11:47:31.968Z,27.80
2023-05-22T11:49:58.265Z,27.93
2023-05-22T11:52:24.553Z,28.04
2023-05-22T11:54:53.993Z,27.44
2023-05-22T11:57:20.346Z,27.41
2023-05-22T11:59:46.698Z,27.36
2023-05-22T12:02:12.962Z,27.55
2023-05-22T12:04:39.228Z,27.43
2023-05-22T12:07:05.481Z,27.44
2023-05-22T12:09:31.724Z,27.48
2023-05-22T12:11:57.967Z,27.56
2023-05-22T12:14:25.587Z,27.45
2023-05-22T12:16:51.883Z,27.06
2023-05-22T12:19:18.223Z,26.94
2023-05-22T12:21:44.923Z,26.47
2023-05-22T12:24:11.179Z,26.38
2023-05-22T12:26:37.452Z,26.89
2023-05-22T12:29:03.885Z,27.58
2023-05-22T12:31:36.334Z,28.02
2023-05-22T12:34:03.915Z,28.50
2023-05-22T12:36:33.731Z,27.48
2023-05-22T12:38:59.977Z,27.56
2023-05-22T12:41:26.246Z,27.92
2023-05-22T12:43:52.503Z,27.99
2023-05-22T12:46:18.802Z,27.31
2023-05-22T12:48:45.094Z,27.44
2023-05-22T12:51:11.345Z,27.55
2023-05-22T12:53:37.592Z,27.43
2023-05-22T12:56:03.842Z,26.79
2023-05-22T12:58:30.118Z,26.26
2023-05-22T13:00:56.388Z,26.10
2023-05-22T13:03:22.667Z,25.44
2023-05-22T13:05:48.934Z,25.04
2023-05-22T13:08:15.182Z,25.16
2023-05-22T13:10:41.449Z,25.23
2023-05-22T13:13:07.703Z,25.29
2023-05-22T13:15:33.974Z,25.57
2023-05-22T13:18:00.259Z,25.75
2023-05-22T13:20:26.536Z,26.15
2023-05-22T13:22:52.805Z,26.47
2023-05-22T13:25:19.179Z,26.73
2023-05-22T13:27:45.588Z,27.07
2023-05-22T13:30:11.924Z,26.32
2023-05-22T13:32:38.316Z,25.38
2023-05-22T13:35:04.739Z,25.08
2023-05-22T13:37:30.999Z,24.67
2023-05-22T13:39:57.309Z,24.59
2023-05-22T13:42:23.562Z,24.74
2023-05-22T13:44:49.819Z,24.99
2023-05-22T13:47:16.157Z,25.20
2023-05-22T13:49:42.498Z,25.02
2023-05-22T13:52:08.771Z,24.95
2023-05-22T13:54:35.047Z,24.53
2023-05-22T13:57:01.303Z,24.67
2023-05-22T13:59:27.570Z,24.26
2023-05-22T14:01:53.864Z,24.03
2023-05-22T14:04:20.137Z,23.92
2023-05-22T14:06:46.460Z,23.67
2023-05-22T14:09:12.698Z,23.99
2023-05-22T14:11:38.956Z,24.07
2023-05-22T14:14:05.390Z,23.98
2023-05-22T14:16:31.668Z,24.20
2023-05-22T14:18:58.846Z,24.39
2023-05-22T14:21:25.138Z,24.62
2023-05-22T14:23:51.397Z,24.55
2023-05-22T14:26:17.645Z,24.77
2023-05-22T14:28:44.028Z,25.08
2023-05-22T14:31:10.331Z,25.30
2023-05-22T14:33:36.649Z,25.55
2023-05-22T14:38:31.544Z,25.29
2023-05-22T14:40:57.819Z,25.32
2023-05-22T14:43:24.084Z,25.59
2023-05-22T14:45:50.407Z,25.61
2023-05-22T14:48:16.719Z,25.22
2023-05-22T14:50:44.844Z,24.99
2023-05-22T14:53:11.096Z,24.99
2023-05-22T14:55:37.499Z,25.12
2023-05-22T14:58:04.020Z,24.87
2023-05-22T15:00:30.283Z,24.85
2023-05-22T15:02:56.615Z,24.98
2023-05-22T15:05:23.207Z,24.98
2023-05-22T15:07:51.394Z,25.13
2023-05-22T15:10:17.978Z,25.02
2023-05-22T15:12:44.240Z,24.91
2023-05-22T15:15:10.690Z,24.90
2023-05-22T15:17:36.978Z,24.76
2023-05-22T15:20:03.621Z,24.38
2023-05-22T15:22:29.901Z,24.32
2023-05-22T15:25:02.466Z,24.33
2023-05-22T15:27:28.730Z,24.02
2023-05-22T15:29:54.968Z,23.97
2023-05-22T15:32:21.221Z,23.86
2023-05-22T15:34:47.472Z,23.94
2023-05-22T15:37:13.733Z,23.88
2023-05-22T15:39:39.978Z,23.50
2023-05-22T15:42:07.098Z,23.54
2023-05-22T15:44:33.437Z,23.50
2023-05-22T15:46:59.729Z,23.49
2023-05-22T15:49:26.987Z,23.38
2023-05-22T15:51:54.921Z,23.42
2023-05-22T15:54:21.165Z,23.36
2023-05-22T15:56:47.419Z,23.41
2023-05-22T15:59:13.724Z,23.38
2023-05-22T16:01:40.056Z,23.33
2023-05-22T16:04:06.348Z,23.31
2023-05-22T16:06:32.612Z,23.53
2023-05-22T16:08:58.863Z,23.51
2023-05-22T16:11:25.119Z,23.62
2023-05-22T16:13:51.504Z,23.56
2023-05-22T16:16:17.777Z,23.43
2023-05-22T16:18:44.029Z,23.52
2023-05-22T16:21:10.273Z,23.53
2023-05-22T16:23:36.555Z,23.62
2023-05-22T16:26:02.824Z,23.57
2023-05-22T16:28:29.060Z,23.50
2023-05-22T16:30:55.312Z,23.40
2023-05-22T16:33:21.554Z,23.54
2023-05-22T16:35:47.827Z,23.33
2023-05-22T16:38:14.144Z,23.18
2023-05-22T16:40:40.400Z,23.16
2023-05-22T16:43:07.010Z,23.01
2023-05-22T16:45:33.277Z,22.95
2023-05-22T16:47:59.610Z,22.89
2023-05-22T16:50:25.994Z,22.78
2023-05-22T16:52:52.247Z,22.77
2023-05-22T16:55:18.649Z,22.69
2023-05-22T16:57:45.395Z,22.79
2023-05-22T17:00:11.853Z,22.62
2023-05-22T17:02:38.437Z,22.61
2023-05-22T17:05:04.975Z,22.58
2023-05-22T17:07:31.227Z,22.39
2023-05-22T17:09:57.673Z,22.42
2023-05-22T17:12:23.923Z,22.27
2023-05-22T17:14:50.179Z,22.30
2023-05-22T17:17:16.429Z,22.18
2023-05-22T17:19:42.669Z,22.10
2023-05-22T17:22:08.954Z,21.93
2023-05-22T17:24:35.389Z,21.88
2023-05-22T17:27:01.668Z,21.74
2023-05-22T17:29:28.291Z,21.60
2023-05-22T17:31:54.608Z,21.66
2023-05-22T17:34:20.872Z,21.60
2023-05-22T17:36:47.135Z,21.42
2023-05-22T17:39:13.376Z,21.40
2023-05-22T17:41:39.628Z,21.25
2023-05-22T17:44:05.874Z,21.23
2023-05-22T17:46:32.169Z,21.30
2023-05-22T17:48:58.714Z,21.23
2023-05-22T17:51:25.022Z,21.30
2023-05-22T17:53:51.269Z,21.14
2023-05-22T17:56:17.526Z,21.11
2023-05-22T17:58:43.777Z,21.01
2023-05-22T18:01:10.071Z,20.99
2023-05-22T18:03:36.478Z,20.81
2023-05-22T18:06:02.839Z,20.77
2023-05-22T18:08:29.126Z,20.84
2023-05-22T18:10:55.386Z,20.59
2023-05-22T18:13:21.632Z,20.69
2023-05-22T18:15:51.471Z,20.73
2023-05-22T18:18:17.777Z,20.76
2023-05-22T18:20:44.032Z,20.49
2023-05-22T18:23:10.270Z,20.45
2023-05-22T18:25:36.517Z,20.60
2023-05-22T18:28:02.772Z,20.36
2023-05-22T18:30:29.033Z,20.25
2023-05-22T18:32:55.373Z,20.16
2023-05-22T18:35:21.659Z,20.24
2023-05-22T18:37:47.916Z,20.14
2023-05-22T18:40:14.183Z,19.99
2023-05-22T18:42:40.430Z,19.80
2023-05-22T18:45:06.998Z,19.88
2023-05-22T18:47:33.343Z,19.88
2023-05-22T18:49:59.646Z,19.76
2023-05-22T18:52:25.878Z,19.76
2023-05-22T18:54:52.124Z,19.72
2023-05-22T18:57:18.382Z,19.65
2023-05-22T18:59:44.744Z,19.47
2023-05-22T19:02:11.005Z,19.48
2023-05-22T19:04:37.353Z,19.59
2023-05-22T19:07:03.674Z,19.37
2023-05-22T19:09:29.932Z,19.20
2023-05-22T19:11:56.174Z,19.24
2023-05-22T19:14:22.438Z,19.17
2023-05-22T19:16:48.732Z,19.25
2023-05-22T19:19:15.060Z,19.15
2023-05-22T19:21:41.392Z,19.14
2023-05-22T19:24:07.662Z,19.12
2023-05-22T19:26:33.964Z,18.95
2023-05-22T19:29:00.255Z,18.87
2023-05-22T19:31:27.040Z,18.85
2023-05-22T19:33:53.374Z,18.98
2023-05-22T19:36:19.645Z,18.89
2023-05-22T19:38:45.910Z,18.96
2023-05-22T19:41:12.173Z,18.80
2023-05-22T19:43:38.430Z,18.84
2023-05-22T19:46:06.434Z,18.83
2023-05-22T19:48:34.154Z,18.78
2023-05-22T19:51:00.423Z,18.77
2023-05-22T19:53:26.656Z,18.68
2023-05-22T19:55:52.939Z,18.44
2023-05-22T19:58:19.252Z,18.49
2023-05-22T20:00:45.513Z,18.52
2023-05-22T20:03:11.841Z,18.56
2023-05-22T20:05:38.388Z,18.49
2023-05-22T20:08:04.831Z,18.51
2023-05-22T20:10:32.310Z,18.45
2023-05-22T20:12:59.620Z,18.29
2023-05-22T20:15:25.888Z,18.29
2023-05-22T20:17:52.593Z,18.26
2023-05-22T20:20:19.172Z,18.29
2023-05-22T20:22:45.411Z,18.17
2023-05-22T20:25:11.952Z,18.26
2023-05-22T20:27:38.203Z,18.21
2023-05-22T20:30:04.727Z,18.15
2023-05-22T20:32:31.005Z,18.07
2023-05-22T20:34:57.323Z,18.03
2023-05-22T20:37:23.572Z,18.01
2023-05-22T20:39:49.829Z,18.01
2023-05-22T20:42:16.790Z,17.99
2023-05-22T20:44:43.050Z,18.09
2023-05-22T20:47:09.326Z,18.07
2023-05-22T20:49:35.592Z,18.15
2023-05-22T20:52:01.854Z,18.23
2023-05-22T20:54:31.083Z,18.34
2023-05-22T20:56:57.327Z,18.40
2023-05-22T20:59:23.588Z,18.54
2023-05-22T21:01:49.839Z,18.52
2023-05-22T21:04:16.115Z,18.31
2023-05-22T21:06:42.412Z,18.35
2023-05-22T21:09:08.691Z,18.39
2023-05-22T21:11:34.961Z,18.46
2023-05-22T21:14:01.218Z,18.24
2023-05-22T21:16:27.492Z,18.06
2023-05-22T21:18:53.775Z,18.19
2023-05-22T21:21:20.067Z,18.28
2023-05-22T21:23:46.325Z,18.19
2023-05-22T21:26:12.606Z,18.23
2023-05-22T21:28:39.004Z,18.38
2023-05-22T21:31:05.312Z,18.24
2023-05-22T21:33:31.602Z,18.36
2023-05-22T21:35:57.846Z,18.39
2023-05-22T21:38:24.103Z,18.39
2023-05-22T21:40:50.377Z,18.43
2023-05-22T21:43:16.643Z,18.42
2023-05-22T21:45:42.899Z,18.40
2023-05-22T21:48:09.190Z,18.21
2023-05-22T21:50:35.507Z,18.12
2023-05-22T21:53:01.755Z,18.25
2023-05-22T21:55:28.014Z,18.23
2023-05-22T21:57:55.284Z,17.99
2023-05-22T22:00:21.542Z,18.06
2023-05-22T22:02:47.897Z,17.25
2023-05-22T22:05:14.516Z,17.31
2023-05-22T22:07:40.773Z,17.48
2023-05-22T22:10:07.342Z,17.56
2023-05-22T22:12:33.591Z,17.77
2023-05-22T22:14:59.835Z,17.40
2023-05-22T22:17:26.085Z,17.39
2023-05-22T22:19:52.369Z,17.42
2023-05-22T22:22:18.857Z,17.74
2023-05-22T22:24:46.963Z,17.93
2023-05-22T22:27:14.513Z,18.03
2023-05-22T22:29:40.776Z,18.04
2023-05-22T22:32:07.135Z,18.20
2023-05-22T22:34:33.523Z,18.26
2023-05-22T22:36:59.800Z,18.15
2023-05-22T22:39:26.045Z,18.02
2023-05-22T22:41:52.323Z,18.12
2023-05-22T22:44:18.561Z,18.21
2023-05-22T22:46:44.825Z,18.30
2023-05-22T22:49:11.079Z,18.26
2023-05-22T22:51:37.351Z,18.32
2023-05-22T22:54:03.714Z,18.29
2023-05-22T22:56:30.089Z,18.17
2023-05-22T22:58:56.596Z,17.92
2023-05-22T23:01:22.894Z,17.88
2023-05-22T23:03:49.201Z,17.66
2023-05-22T23:06:15.461Z,17.89
2023-05-22T23:08:41.718Z,17.70
2023-05-22T23:11:07.981Z,17.92
2023-05-22T23:13:34.262Z,18.01
2023-05-22T23:16:00.589Z,18.08
2023-05-22T23:18:26.867Z,18.10
2023-05-22T23:20:53.126Z,17.95
2023-05-22T23:23:19.386Z,18.03
2023-05-22T23:25:45.639Z,18.04
2023-05-22T23:28:11.932Z,18.02
2023-05-22T23:30:38.238Z,18.02
2023-05-22T23:33:04.559Z,17.77
2023-05-22T23:35:30.842Z,17.59
2023-05-22T23:37:57.087Z,17.70
2023-05-22T23:40:23.340Z,17.85
2023-05-22T23:42:49.593Z,17.88
2023-05-22T23:45:15.839Z,17.68
2023-05-22T23:47:42.126Z,17.78
2023-05-22T23:50:08.545Z,17.87
2023-05-22T23:52:34.794Z,17.80
2023-05-22T23:55:01.051Z,17.69
2023-05-22T23:57:27.287Z,17.54
2023-05-22T23:59:53.556Z,17.31
